createdAt,value
2019-01-09T00:04:33.003Z,96863.53
2019-01-09T00:09:27.585Z,96859.75
2019-01-09T00:14:22.204Z,96868.33
2019-01-09T00:19:16.784Z,96861.64
2019-01-09T00:24:11.461Z,96851.20
2019-01-09T00:29:06.351Z,96848.25
2019-01-09T00:34:01.051Z,96843.05
2019-01-09T00:38:55.695Z,96844.69
2019-01-09T00:43:50.462Z,96837.22
2019-01-09T00:48:45.107Z,96820.98
2019-01-09T00:53:39.785Z,96816.88
2019-01-09T00:58:34.495Z,96818.89
2019-01-09T01:03:51.560Z,96809.50
2019-01-09T01:09:11.630Z,96808.52
2019-01-09T01:14:10.790Z,96814.95
2019-01-09T01:19:27.666Z,96827.11
2019-01-09T01:24:46.237Z,96824.28
2019-01-09T01:30:10.687Z,96826.21
2019-01-09T01:35:33.704Z,96811.30
2019-01-09T01:40:53.833Z,96817.35
2019-01-09T01:46:17.058Z,96814.23
2019-01-09T01:51:50.674Z,96802.70
2019-01-09T01:56:52.812Z,96799.90
2019-01-09T02:02:04.118Z,96788.05
2019-01-09T02:07:26.788Z,96775.17
2019-01-09T02:12:37.832Z,96772.98
2019-01-09T02:17:48.261Z,96763.88
2019-01-09T02:23:15.995Z,96760.68
2019-01-09T02:28:23.518Z,96758.80
2019-01-09T02:33:18.103Z,96767.56
2019-01-09T02:38:12.699Z,96758.52
2019-01-09T02:43:07.373Z,96739.30
2019-01-09T02:48:01.983Z,96731.33
2019-01-09T02:52:56.568Z,96729.45
2019-01-09T02:57:56.467Z,96721.12
2019-01-09T03:02:47.478Z,96726.56
2019-01-09T03:07:42.088Z,96726.72
2019-01-09T03:12:36.728Z,96723.63
2019-01-09T03:17:31.322Z,96710.88
2019-01-09T03:22:25.972Z,96715.15
2019-01-09T03:27:20.563Z,96704.86
2019-01-09T03:32:15.195Z,96697.09
2019-01-09T03:37:09.799Z,96694.24
2019-01-09T03:42:04.613Z,96679.02
2019-01-09T03:46:59.287Z,96675.37
2019-01-09T03:51:53.888Z,96664.91
2019-01-09T03:56:48.467Z,96646.39
2019-01-09T04:01:43.074Z,96640.70
2019-01-09T04:06:42.034Z,96635.75
2019-01-09T04:11:33.999Z,96629.15
2019-01-09T04:16:28.597Z,96630.92
2019-01-09T04:21:23.182Z,96634.58
2019-01-09T04:26:17.882Z,96622.27
2019-01-09T04:31:12.464Z,96605.46
2019-01-09T04:36:07.043Z,96599.11
2019-01-09T04:41:01.656Z,96586.16
2019-01-09T04:45:56.256Z,96585.75
2019-01-09T04:50:50.950Z,96578.80
2019-01-09T04:55:45.555Z,96580.41
2019-01-09T05:00:40.151Z,96587.30
2019-01-09T05:05:34.747Z,96582.59
2019-01-09T05:10:29.337Z,96566.36
2019-01-09T05:15:23.953Z,96556.77
2019-01-09T05:20:18.566Z,96554.14
2019-01-09T05:25:13.210Z,96551.11
2019-01-09T05:30:08.757Z,96543.75
2019-01-09T05:35:03.429Z,96549.63
2019-01-09T05:39:58.033Z,96538.83
2019-01-09T05:44:52.618Z,96547.64
2019-01-09T05:49:47.216Z,96542.14
2019-01-09T05:54:41.812Z,96539.11
2019-01-09T05:59:36.412Z,96532.95
2019-01-09T06:04:31.011Z,96538.76
2019-01-09T06:09:25.610Z,96544.01
2019-01-09T06:14:20.210Z,96544.45
2019-01-09T06:19:14.904Z,96545.45
2019-01-09T06:24:09.533Z,96541.28
2019-01-09T06:29:11.108Z,96539.86
2019-01-09T06:34:06.051Z,96535.58
2019-01-09T06:39:00.657Z,96548.74
2019-01-09T06:43:55.232Z,96545.02
2019-01-09T06:48:49.838Z,96538.92
2019-01-09T06:53:44.623Z,96535.39
2019-01-09T06:58:39.325Z,96529.30
2019-01-09T07:03:33.951Z,96530.34
2019-01-09T07:08:28.528Z,96527.66
2019-01-09T07:13:23.146Z,96526.83
2019-01-09T07:18:17.757Z,96530.30
2019-01-09T07:23:12.387Z,96532.05
2019-01-09T07:28:06.994Z,96536.51
2019-01-09T07:33:01.652Z,96536.91
2019-01-09T07:37:58.456Z,96526.15
2019-01-09T07:42:53.053Z,96525.87
2019-01-09T07:47:47.733Z,96526.46
2019-01-09T07:52:42.501Z,96519.81
2019-01-09T07:57:37.252Z,96517.98
2019-01-09T08:02:31.892Z,96518.87
2019-01-09T08:07:26.684Z,96527.73
2019-01-09T08:12:21.278Z,96545.20
2019-01-09T08:17:15.905Z,96546.81
2019-01-09T08:22:10.556Z,96562.38
2019-01-09T08:27:05.539Z,96565.09
2019-01-09T08:32:09.489Z,96573.34
2019-01-09T08:37:11.270Z,96566.16
2019-01-09T08:42:08.835Z,96570.75
2019-01-09T08:47:03.569Z,96575.79
2019-01-09T08:51:58.339Z,96579.70
2019-01-09T08:56:53.095Z,96583.31
2019-01-09T09:01:47.801Z,96592.41
2019-01-09T09:06:43.369Z,96581.61
2019-01-09T09:11:38.032Z,96583.62
2019-01-09T09:16:36.656Z,96590.03
2019-01-09T09:21:28.947Z,96578.05
2019-01-09T09:26:24.205Z,96583.66
2019-01-09T09:31:19.753Z,96588.09
2019-01-09T09:36:14.878Z,96589.48
2019-01-09T09:41:10.026Z,96589.13
2019-01-09T09:46:07.410Z,96585.92
2019-01-09T09:51:06.267Z,96589.45
2019-01-09T09:56:02.282Z,96601.90
2019-01-09T10:00:57.741Z,96603.19
2019-01-09T10:05:53.864Z,96603.19
2019-01-09T10:10:49.779Z,96608.58
2019-01-09T10:15:48.621Z,96602.28
2019-01-09T10:20:43.035Z,96600.19
2019-01-09T10:25:38.967Z,96600.12
2019-01-09T10:30:34.621Z,96590.85
2019-01-09T10:35:37.612Z,96584.72
2019-01-09T10:40:39.573Z,96596.98
2019-01-09T10:45:38.511Z,96596.47
2019-01-09T10:50:39.111Z,96601.61
2019-01-09T10:55:37.653Z,96596.55
2019-01-09T11:00:39.626Z,96602.76
2019-01-09T11:05:40.864Z,96608.89
2019-01-09T11:10:42.528Z,96601.48
2019-01-09T11:15:38.314Z,96611.72
2019-01-09T11:20:35.146Z,96598.58
2019-01-09T11:25:31.020Z,96601.18
2019-01-09T11:30:26.395Z,96599.62
2019-01-09T11:35:24.774Z,96597.84
2019-01-09T11:40:21.377Z,96600.87
2019-01-09T11:45:19.946Z,96606.67
2019-01-09T11:50:17.151Z,96604.17
2019-01-09T11:55:14.593Z,96597.55
2019-01-09T12:00:21.917Z,96599.08
2019-01-09T12:05:17.263Z,96587.89
2019-01-09T12:10:30.302Z,96597.34
2019-01-09T12:15:22.792Z,96585.19
2019-01-09T12:20:21.268Z,96581.27
2019-01-09T12:25:16.669Z,96585.03
2019-01-09T12:30:19.040Z,96577.54
2019-01-09T12:35:13.976Z,96563.70
2019-01-09T12:40:09.796Z,96567.84
2019-01-09T12:45:11.457Z,96566.46
2019-01-09T12:50:10.985Z,96575.55
2019-01-09T12:55:07.699Z,96573.77
2019-01-09T13:00:02.324Z,96574.19
2019-01-09T13:04:57.031Z,96584.38
2019-01-09T13:09:51.715Z,96578.42
2019-01-09T13:14:46.357Z,96572.57
2019-01-09T13:19:41.071Z,96587.04
2019-01-09T13:24:35.863Z,96582.52
2019-01-09T13:29:30.558Z,96576.34
2019-01-09T13:34:25.219Z,96576.50
2019-01-09T13:39:19.808Z,96591.34
2019-01-09T13:44:14.434Z,96601.34
2019-01-09T13:49:09.160Z,96604.95
2019-01-09T13:54:05.334Z,96608.26
2019-01-09T13:59:00.032Z,96612.82
2019-01-09T14:03:54.641Z,96622.96
2019-01-09T14:08:49.262Z,96617.77
2019-01-09T14:13:43.848Z,96611.55
2019-01-09T14:18:38.440Z,96611.36
2019-01-09T14:23:33.057Z,96615.56
2019-01-09T14:28:27.907Z,96604.69
2019-01-09T14:33:22.714Z,96617.61
2019-01-09T14:38:17.297Z,96615.30
2019-01-09T14:43:11.893Z,96615.97
2019-01-09T14:48:12.168Z,96616.12
2019-01-09T14:53:07.036Z,96609.05
2019-01-09T14:58:01.632Z,96616.79
2019-01-09T15:02:56.587Z,96615.69
2019-01-09T15:07:51.236Z,96617.41
2019-01-09T15:12:46.414Z,96620.25
2019-01-09T15:17:41.280Z,96626.05
2019-01-09T15:22:36.309Z,96629.74
2019-01-09T15:27:31.302Z,96626.73
2019-01-09T15:32:26.226Z,96636.45
2019-01-09T15:37:21.145Z,96642.00
2019-01-09T15:42:16.182Z,96647.31
2019-01-09T15:47:16.524Z,96647.69
2019-01-09T15:52:12.039Z,96647.13
2019-01-09T15:57:06.800Z,96664.98
2019-01-09T16:02:01.681Z,96662.14
2019-01-09T16:06:56.264Z,96677.84
2019-01-09T16:11:51.041Z,96682.59
2019-01-09T16:16:46.847Z,96679.23
2019-01-09T16:21:44.163Z,96687.13
2019-01-09T16:26:38.876Z,96693.41
2019-01-09T16:31:33.608Z,96692.38
2019-01-09T16:36:28.233Z,96695.11
2019-01-09T16:41:22.952Z,96696.97
2019-01-09T16:46:17.905Z,96700.61
2019-01-09T16:51:12.510Z,96703.61
2019-01-09T16:56:08.514Z,96712.67
2019-01-09T17:01:03.536Z,96714.25
2019-01-09T17:05:58.354Z,96724.13
2019-01-09T17:10:52.998Z,96725.37
2019-01-09T17:15:50.915Z,96726.48
2019-01-09T17:20:49.279Z,96725.83
2019-01-09T17:25:49.116Z,96726.84
2019-01-09T17:30:49.325Z,96738.53
2019-01-09T17:35:44.107Z,96740.94
2019-01-09T17:40:41.297Z,96746.30
2019-01-09T17:45:35.170Z,96747.91
2019-01-09T17:50:33.564Z,96752.76
2019-01-09T17:55:28.554Z,96757.43
2019-01-09T18:00:32.848Z,96757.66
2019-01-09T18:05:27.823Z,96760.20
2019-01-09T18:10:25.317Z,96768.94
2019-01-09T18:15:22.825Z,96773.12
2019-01-09T18:20:20.235Z,96772.38
2019-01-09T18:25:18.634Z,96776.91
2019-01-09T18:30:27.572Z,96780.61
2019-01-09T18:35:35.061Z,96778.81
2019-01-09T18:40:59.505Z,96794.08
2019-01-09T18:46:20.090Z,96789.23
2019-01-09T18:51:55.485Z,96790.48
2019-01-09T18:56:50.077Z,96793.69
2019-01-09T19:01:44.710Z,96798.45
2019-01-09T19:06:39.329Z,96798.27
2019-01-09T19:11:33.906Z,96802.28
2019-01-09T19:16:48.051Z,96810.77
2019-01-09T19:21:42.759Z,96818.72
2019-01-09T19:26:37.367Z,96820.98
2019-01-09T19:31:32.181Z,96828.20
2019-01-09T19:36:26.798Z,96837.11
2019-01-09T19:41:21.417Z,96838.86
2019-01-09T19:46:16.000Z,96843.22
2019-01-09T19:51:17.275Z,96838.56
2019-01-09T19:56:07.823Z,96853.73
2019-01-09T20:01:02.498Z,96862.61
2019-01-09T20:05:57.302Z,96862.38
2019-01-09T20:10:52.016Z,96868.10
2019-01-09T20:15:46.769Z,96871.63
2019-01-09T20:20:41.598Z,96872.56
2019-01-09T20:25:36.167Z,96880.52
2019-01-09T20:30:31.300Z,96885.33
2019-01-09T20:35:26.069Z,96885.89
2019-01-09T20:40:20.877Z,96894.38
2019-01-09T20:45:19.256Z,96892.45
2019-01-09T20:50:24.556Z,96896.25
2019-01-09T20:55:20.973Z,96912.13
2019-01-09T21:00:28.036Z,96916.50
2019-01-09T21:05:27.546Z,96920.09
2019-01-09T21:10:22.229Z,96919.41
2019-01-09T21:15:20.032Z,96926.05
2019-01-09T21:20:21.635Z,96929.27
2019-01-09T21:25:18.043Z,96925.47
2019-01-09T21:30:22.766Z,96926.32
2019-01-09T21:35:17.835Z,96936.79
2019-01-09T21:40:17.034Z,96939.08
2019-01-09T21:45:13.660Z,96935.61
2019-01-09T21:50:15.517Z,96935.66
2019-01-09T21:55:11.042Z,96937.09
2019-01-09T22:00:10.231Z,96939.36
2019-01-09T22:05:06.334Z,96953.71
2019-01-09T22:10:00.942Z,96952.42
2019-01-09T22:14:55.520Z,96950.61
2019-01-09T22:19:50.202Z,96957.74
2019-01-09T22:24:44.932Z,96960.84
2019-01-09T22:29:39.598Z,96968.95
2019-01-09T22:34:34.267Z,96968.33
2019-01-09T22:39:28.948Z,96966.69
2019-01-09T22:44:23.610Z,96979.66
2019-01-09T22:49:18.293Z,96971.91
2019-01-09T22:54:12.899Z,96976.94
2019-01-09T22:59:07.487Z,96966.14
2019-01-09T23:04:02.420Z,96966.31
2019-01-09T23:08:57.009Z,96969.87
2019-01-09T23:13:51.697Z,96971.33
2019-01-09T23:18:46.414Z,96976.00
2019-01-09T23:23:41.057Z,96970.51
2019-01-09T23:28:35.814Z,96974.87
2019-01-09T23:33:30.570Z,96980.70
2019-01-09T23:38:25.164Z,96983.09
2019-01-09T23:43:20.042Z,96986.50
2019-01-09T23:48:14.758Z,96989.91
2019-01-09T23:53:09.348Z,96987.94
2019-01-09T23:58:03.954Z,96987.95
